sensor_id;sensor_type;location;lat;lon;timestamp;P1;durP1;ratioP1;P2;durP2;ratioP2
41263;SDS011;26998;48.714;9.414;2023-02-28T00:02:16;6.13;;;3.30;;
41263;SDS011;26998;48.714;9.414;2023-02-28T00:04:43;3.13;;;2.70;;
41263;SDS011;26998;48.714;9.414;2023-02-28T00:07:10;4.03;;;2.90;;
41263;SDS011;26998;48.714;9.414;2023-02-28T00:09:36;5.73;;;2.97;;
41263;SDS011;26998;48.714;9.414;2023-02-28T00:12:03;4.60;;;2.97;;
41263;SDS011;26998;48.714;9.414;2023-02-28T00:14:30;5.00;;;2.77;;
41263;SDS011;26998;48.714;9.414;2023-02-28T00:16:56;5.13;;;3.10;;
41263;SDS011;26998;48.714;9.414;2023-02-28T00:19:23;20.40;;;3.73;;
41263;SDS011;26998;48.714;9.414;2023-02-28T00:21:50;4.60;;;2.80;;
41263;SDS011;26998;48.714;9.414;2023-02-28T00:24:16;3.30;;;2.60;;
41263;SDS011;26998;48.714;9.414;2023-02-28T00:26:43;4.77;;;2.47;;
41263;SDS011;26998;48.714;9.414;2023-02-28T00:29:09;4.93;;;3.17;;
41263;SDS011;26998;48.714;9.414;2023-02-28T00:31:36;6.10;;;3.43;;
41263;SDS011;26998;48.714;9.414;2023-02-28T00:34:03;5.43;;;3.17;;
41263;SDS011;26998;48.714;9.414;2023-02-28T00:36:29;3.83;;;3.00;;
41263;SDS011;26998;48.714;9.414;2023-02-28T00:38:56;5.60;;;3.20;;
41263;SDS011;26998;48.714;9.414;2023-02-28T00:41:22;5.93;;;2.60;;
41263;SDS011;26998;48.714;9.414;2023-02-28T00:43:49;5.00;;;2.67;;
41263;SDS011;26998;48.714;9.414;2023-02-28T00:46:15;4.77;;;2.93;;
41263;SDS011;26998;48.714;9.414;2023-02-28T00:48:42;5.77;;;3.13;;
41263;SDS011;26998;48.714;9.414;2023-02-28T00:51:08;5.60;;;3.10;;
41263;SDS011;26998;48.714;9.414;2023-02-28T00:53:35;6.00;;;3.07;;
41263;SDS011;26998;48.714;9.414;2023-02-28T00:56:02;4.57;;;2.90;;
41263;SDS011;26998;48.714;9.414;2023-02-28T00:58:29;3.83;;;2.80;;
41263;SDS011;26998;48.714;9.414;2023-02-28T01:00:56;6.63;;;3.60;;
41263;SDS011;26998;48.714;9.414;2023-02-28T01:03:23;3.93;;;2.90;;
41263;SDS011;26998;48.714;9.414;2023-02-28T01:05:49;6.80;;;3.40;;
41263;SDS011;26998;48.714;9.414;2023-02-28T01:08:16;4.67;;;3.10;;
41263;SDS011;26998;48.714;9.414;2023-02-28T01:10:43;4.07;;;3.13;;
41263;SDS011;26998;48.714;9.414;2023-02-28T01:13:10;4.00;;;2.80;;
41263;SDS011;26998;48.714;9.414;2023-02-28T01:15:37;5.40;;;3.90;;
41263;SDS011;26998;48.714;9.414;2023-02-28T01:18:08;4.95;;;3.15;;
41263;SDS011;26998;48.714;9.414;2023-02-28T01:20:36;4.20;;;3.17;;
41263;SDS011;26998;48.714;9.414;2023-02-28T01:23:03;5.17;;;3.43;;
41263;SDS011;26998;48.714;9.414;2023-02-28T01:25:29;4.33;;;3.13;;
41263;SDS011;26998;48.714;9.414;2023-02-28T01:27:56;5.20;;;3.73;;
41263;SDS011;26998;48.714;9.414;2023-02-28T01:30:22;4.50;;;3.30;;
41263;SDS011;26998;48.714;9.414;2023-02-28T01:32:49;4.20;;;3.30;;
41263;SDS011;26998;48.714;9.414;2023-02-28T01:35:16;5.10;;;3.53;;
41263;SDS011;26998;48.714;9.414;2023-02-28T01:37:42;5.63;;;3.60;;
41263;SDS011;26998;48.714;9.414;2023-02-28T01:40:09;6.80;;;4.00;;
41263;SDS011;26998;48.714;9.414;2023-02-28T01:42:36;4.60;;;3.43;;
41263;SDS011;26998;48.714;9.414;2023-02-28T01:45:04;5.80;;;3.60;;
41263;SDS011;26998;48.714;9.414;2023-02-28T01:47:46;5.40;;;3.70;;
41263;SDS011;26998;48.714;9.414;2023-02-28T01:50:17;7.80;;;3.93;;
41263;SDS011;26998;48.714;9.414;2023-02-28T01:52:47;6.38;;;3.90;;
41263;SDS011;26998;48.714;9.414;2023-02-28T01:55:14;4.03;;;3.17;;
41263;SDS011;26998;48.714;9.414;2023-02-28T01:57:44;5.67;;;3.40;;
41263;SDS011;26998;48.714;9.414;2023-02-28T02:00:16;6.67;;;3.90;;
41263;SDS011;26998;48.714;9.414;2023-02-28T02:02:46;5.63;;;3.67;;
41263;SDS011;26998;48.714;9.414;2023-02-28T02:05:19;5.68;;;4.32;;
41263;SDS011;26998;48.714;9.414;2023-02-28T02:07:49;5.40;;;3.83;;
41263;SDS011;26998;48.714;9.414;2023-02-28T02:10:21;6.22;;;4.10;;
41263;SDS011;26998;48.714;9.414;2023-02-28T02:18:36;7.33;;;4.17;;
41263;SDS011;26998;48.714;9.414;2023-02-28T02:21:18;5.30;;;4.20;;
41263;SDS011;26998;48.714;9.414;2023-02-28T02:26:34;8.67;;;4.27;;
41263;SDS011;26998;48.714;9.414;2023-02-28T02:35:07;8.50;;;3.93;;
41263;SDS011;26998;48.714;9.414;2023-02-28T02:37:51;6.50;;;4.07;;
41263;SDS011;26998;48.714;9.414;2023-02-28T02:40:26;4.90;;;3.77;;
41263;SDS011;26998;48.714;9.414;2023-02-28T02:43:01;7.47;;;4.60;;
41263;SDS011;26998;48.714;9.414;2023-02-28T02:46:06;8.27;;;4.17;;
41263;SDS011;26998;48.714;9.414;2023-02-28T02:48:42;4.43;;;3.33;;
41263;SDS011;26998;48.714;9.414;2023-02-28T02:51:16;8.07;;;4.50;;
41263;SDS011;26998;48.714;9.414;2023-02-28T02:53:49;7.17;;;4.17;;
41263;SDS011;26998;48.714;9.414;2023-02-28T02:56:26;4.75;;;3.83;;
41263;SDS011;26998;48.714;9.414;2023-02-28T02:58:57;10.27;;;4.60;;
41263;SDS011;26998;48.714;9.414;2023-02-28T03:01:28;7.03;;;4.27;;
41263;SDS011;26998;48.714;9.414;2023-02-28T03:03:59;5.87;;;4.17;;
41263;SDS011;26998;48.714;9.414;2023-02-28T03:06:29;6.63;;;4.10;;
41263;SDS011;26998;48.714;9.414;2023-02-28T03:08:55;6.23;;;4.17;;
41263;SDS011;26998;48.714;9.414;2023-02-28T03:11:22;7.47;;;4.27;;
41263;SDS011;26998;48.714;9.414;2023-02-28T03:14:03;4.40;;;4.00;;
41263;SDS011;26998;48.714;9.414;2023-02-28T03:16:44;5.97;;;4.25;;
41263;SDS011;26998;48.714;9.414;2023-02-28T03:19:21;7.27;;;3.93;;
41263;SDS011;26998;48.714;9.414;2023-02-28T03:22:14;9.03;;;4.50;;
41263;SDS011;26998;48.714;9.414;2023-02-28T03:24:57;6.80;;;4.13;;
41263;SDS011;26998;48.714;9.414;2023-02-28T03:27:27;5.88;;;4.28;;
41263;SDS011;26998;48.714;9.414;2023-02-28T03:29:58;5.72;;;4.28;;
41263;SDS011;26998;48.714;9.414;2023-02-28T03:32:31;6.43;;;4.20;;
41263;SDS011;26998;48.714;9.414;2023-02-28T03:35:06;9.83;;;4.73;;
41263;SDS011;26998;48.714;9.414;2023-02-28T03:37:38;9.77;;;4.90;;
41263;SDS011;26998;48.714;9.414;2023-02-28T03:40:09;6.50;;;4.40;;
41263;SDS011;26998;48.714;9.414;2023-02-28T03:42:41;8.63;;;5.40;;
41263;SDS011;26998;48.714;9.414;2023-02-28T03:45:13;9.00;;;4.63;;
41263;SDS011;26998;48.714;9.414;2023-02-28T03:47:52;6.17;;;4.73;;
41263;SDS011;26998;48.714;9.414;2023-02-28T03:50:21;7.40;;;5.00;;
41263;SDS011;26998;48.714;9.414;2023-02-28T03:53:02;8.52;;;4.55;;
41263;SDS011;26998;48.714;9.414;2023-02-28T03:55:36;7.03;;;4.90;;
41263;SDS011;26998;48.714;9.414;2023-02-28T03:58:11;6.07;;;4.53;;
41263;SDS011;26998;48.714;9.414;2023-02-28T04:00:48;7.30;;;4.90;;
41263;SDS011;26998;48.714;9.414;2023-02-28T04:03:21;6.10;;;5.20;;
41263;SDS011;26998;48.714;9.414;2023-02-28T04:05:52;7.63;;;5.50;;
41263;SDS011;26998;48.714;9.414;2023-02-28T04:08:21;6.80;;;4.80;;
41263;SDS011;26998;48.714;9.414;2023-02-28T04:10:50;7.20;;;4.70;;
41263;SDS011;26998;48.714;9.414;2023-02-28T04:13:22;9.20;;;5.53;;
41263;SDS011;26998;48.714;9.414;2023-02-28T04:15:49;9.63;;;5.90;;
41263;SDS011;26998;48.714;9.414;2023-02-28T04:18:15;10.97;;;5.53;;
41263;SDS011;26998;48.714;9.414;2023-02-28T04:20:42;11.47;;;5.33;;
41263;SDS011;26998;48.714;9.414;2023-02-28T04:23:08;7.03;;;5.40;;
41263;SDS011;26998;48.714;9.414;2023-02-28T04:25:35;10.03;;;6.30;;
41263;SDS011;26998;48.714;9.414;2023-02-28T04:28:01;7.73;;;4.90;;
41263;SDS011;26998;48.714;9.414;2023-02-28T04:30:28;8.83;;;5.40;;
41263;SDS011;26998;48.714;9.414;2023-02-28T04:32:56;9.80;;;5.63;;
41263;SDS011;26998;48.714;9.414;2023-02-28T04:35:22;7.57;;;5.20;;
41263;SDS011;26998;48.714;9.414;2023-02-28T04:37:49;7.83;;;5.80;;
41263;SDS011;26998;48.714;9.414;2023-02-28T04:40:16;9.37;;;5.50;;
41263;SDS011;26998;48.714;9.414;2023-02-28T04:42:42;10.67;;;5.97;;
41263;SDS011;26998;48.714;9.414;2023-02-28T04:45:09;9.17;;;5.80;;
41263;SDS011;26998;48.714;9.414;2023-02-28T04:47:36;8.57;;;5.53;;
41263;SDS011;26998;48.714;9.414;2023-02-28T04:50:03;8.97;;;5.53;;
41263;SDS011;26998;48.714;9.414;2023-02-28T04:52:29;8.73;;;5.40;;
41263;SDS011;26998;48.714;9.414;2023-02-28T04:54:56;7.87;;;5.10;;
41263;SDS011;26998;48.714;9.414;2023-02-28T04:57:22;7.90;;;5.13;;
41263;SDS011;26998;48.714;9.414;2023-02-28T04:59:49;7.33;;;5.00;;
41263;SDS011;26998;48.714;9.414;2023-02-28T05:02:15;8.70;;;5.50;;
41263;SDS011;26998;48.714;9.414;2023-02-28T05:04:42;6.87;;;5.37;;
41263;SDS011;26998;48.714;9.414;2023-02-28T05:07:08;6.97;;;5.80;;
41263;SDS011;26998;48.714;9.414;2023-02-28T05:09:35;8.37;;;6.07;;
41263;SDS011;26998;48.714;9.414;2023-02-28T05:12:01;9.10;;;6.13;;
41263;SDS011;26998;48.714;9.414;2023-02-28T05:14:28;9.00;;;5.90;;
41263;SDS011;26998;48.714;9.414;2023-02-28T05:16:55;9.33;;;6.00;;
41263;SDS011;26998;48.714;9.414;2023-02-28T05:19:21;8.67;;;5.73;;
41263;SDS011;26998;48.714;9.414;2023-02-28T05:21:49;9.47;;;5.53;;
41263;SDS011;26998;48.714;9.414;2023-02-28T05:24:18;9.68;;;6.35;;
41263;SDS011;26998;48.714;9.414;2023-02-28T05:26:45;9.97;;;6.27;;
41263;SDS011;26998;48.714;9.414;2023-02-28T05:29:11;8.87;;;6.13;;
41263;SDS011;26998;48.714;9.414;2023-02-28T05:31:38;11.37;;;6.03;;
41263;SDS011;26998;48.714;9.414;2023-02-28T05:34:07;10.90;;;6.20;;
41263;SDS011;26998;48.714;9.414;2023-02-28T05:36:37;9.87;;;5.90;;
41263;SDS011;26998;48.714;9.414;2023-02-28T05:39:07;11.73;;;6.17;;
41263;SDS011;26998;48.714;9.414;2023-02-28T05:41:34;11.27;;;6.68;;
41263;SDS011;26998;48.714;9.414;2023-02-28T05:44:01;11.97;;;6.30;;
41263;SDS011;26998;48.714;9.414;2023-02-28T05:46:28;8.80;;;6.10;;
41263;SDS011;26998;48.714;9.414;2023-02-28T05:48:57;13.10;;;6.40;;
41263;SDS011;26998;48.714;9.414;2023-02-28T05:51:24;9.70;;;6.80;;
41263;SDS011;26998;48.714;9.414;2023-02-28T05:53:50;12.00;;;6.67;;
41263;SDS011;26998;48.714;9.414;2023-02-28T05:56:17;9.00;;;6.50;;
41263;SDS011;26998;48.714;9.414;2023-02-28T05:58:44;11.57;;;6.60;;
41263;SDS011;26998;48.714;9.414;2023-02-28T06:01:20;9.77;;;6.97;;
41263;SDS011;26998;48.714;9.414;2023-02-28T06:03:47;9.27;;;6.77;;
41263;SDS011;26998;48.714;9.414;2023-02-28T06:06:14;10.93;;;7.23;;
41263;SDS011;26998;48.714;9.414;2023-02-28T06:08:41;9.50;;;6.13;;
41263;SDS011;26998;48.714;9.414;2023-02-28T06:11:07;8.23;;;6.47;;
41263;SDS011;26998;48.714;9.414;2023-02-28T06:13:34;10.67;;;7.17;;
41263;SDS011;26998;48.714;9.414;2023-02-28T06:16:00;9.30;;;6.83;;
41263;SDS011;26998;48.714;9.414;2023-02-28T06:18:27;10.50;;;7.33;;
41263;SDS011;26998;48.714;9.414;2023-02-28T06:20:54;10.63;;;7.27;;
41263;SDS011;26998;48.714;9.414;2023-02-28T06:23:21;11.47;;;7.47;;
41263;SDS011;26998;48.714;9.414;2023-02-28T06:25:48;13.70;;;8.57;;
41263;SDS011;26998;48.714;9.414;2023-02-28T06:28:14;8.20;;;6.30;;
41263;SDS011;26998;48.714;9.414;2023-02-28T06:30:42;9.47;;;7.10;;
41263;SDS011;26998;48.714;9.414;2023-02-28T06:33:11;11.27;;;7.87;;
41263;SDS011;26998;48.714;9.414;2023-02-28T06:35:38;11.60;;;7.40;;
41263;SDS011;26998;48.714;9.414;2023-02-28T06:38:05;12.03;;;7.63;;
41263;SDS011;26998;48.714;9.414;2023-02-28T06:40:32;12.67;;;7.67;;
41263;SDS011;26998;48.714;9.414;2023-02-28T06:42:58;9.63;;;6.97;;
41263;SDS011;26998;48.714;9.414;2023-02-28T06:45:25;11.33;;;7.60;;
41263;SDS011;26998;48.714;9.414;2023-02-28T06:47:51;11.53;;;7.03;;
41263;SDS011;26998;48.714;9.414;2023-02-28T06:50:18;11.20;;;8.33;;
41263;SDS011;26998;48.714;9.414;2023-02-28T06:52:45;12.53;;;7.27;;
41263;SDS011;26998;48.714;9.414;2023-02-28T06:55:13;13.97;;;7.87;;
41263;SDS011;26998;48.714;9.414;2023-02-28T06:57:41;12.80;;;8.43;;
41263;SDS011;26998;48.714;9.414;2023-02-28T07:00:08;10.47;;;7.80;;
41263;SDS011;26998;48.714;9.414;2023-02-28T07:02:36;14.00;;;7.97;;
41263;SDS011;26998;48.714;9.414;2023-02-28T07:05:03;10.57;;;7.33;;
41263;SDS011;26998;48.714;9.414;2023-02-28T07:07:30;12.00;;;8.23;;
41263;SDS011;26998;48.714;9.414;2023-02-28T07:09:57;12.47;;;8.50;;
41263;SDS011;26998;48.714;9.414;2023-02-28T07:12:23;11.43;;;7.90;;
41263;SDS011;26998;48.714;9.414;2023-02-28T07:14:53;11.70;;;8.30;;
41263;SDS011;26998;48.714;9.414;2023-02-28T07:17:19;12.30;;;8.13;;
41263;SDS011;26998;48.714;9.414;2023-02-28T07:19:46;12.37;;;7.93;;
41263;SDS011;26998;48.714;9.414;2023-02-28T07:22:13;11.17;;;8.30;;
41263;SDS011;26998;48.714;9.414;2023-02-28T07:24:43;10.20;;;7.37;;
41263;SDS011;26998;48.714;9.414;2023-02-28T07:27:10;14.23;;;8.27;;
41263;SDS011;26998;48.714;9.414;2023-02-28T07:29:40;14.38;;;8.93;;
41263;SDS011;26998;48.714;9.414;2023-02-28T07:32:06;12.70;;;7.57;;
41263;SDS011;26998;48.714;9.414;2023-02-28T07:34:33;11.97;;;8.27;;
41263;SDS011;26998;48.714;9.414;2023-02-28T07:36:59;13.03;;;8.20;;
41263;SDS011;26998;48.714;9.414;2023-02-28T07:39:27;12.47;;;8.60;;
41263;SDS011;26998;48.714;9.414;2023-02-28T07:41:54;12.13;;;8.00;;
41263;SDS011;26998;48.714;9.414;2023-02-28T07:44:20;11.87;;;8.17;;
41263;SDS011;26998;48.714;9.414;2023-02-28T07:46:47;11.83;;;8.77;;
41263;SDS011;26998;48.714;9.414;2023-02-28T07:49:14;12.83;;;8.10;;
41263;SDS011;26998;48.714;9.414;2023-02-28T07:51:41;11.70;;;8.00;;
41263;SDS011;26998;48.714;9.414;2023-02-28T07:54:08;13.67;;;8.70;;
41263;SDS011;26998;48.714;9.414;2023-02-28T07:56:36;10.80;;;8.20;;
41263;SDS011;26998;48.714;9.414;2023-02-28T07:59:03;15.90;;;9.83;;
41263;SDS011;26998;48.714;9.414;2023-02-28T08:01:29;11.87;;;8.27;;
41263;SDS011;26998;48.714;9.414;2023-02-28T08:03:56;11.27;;;8.03;;
41263;SDS011;26998;48.714;9.414;2023-02-28T08:06:24;12.37;;;8.57;;
41263;SDS011;26998;48.714;9.414;2023-02-28T08:08:52;14.80;;;9.03;;
41263;SDS011;26998;48.714;9.414;2023-02-28T08:11:19;14.23;;;8.10;;
41263;SDS011;26998;48.714;9.414;2023-02-28T08:13:46;15.73;;;9.43;;
41263;SDS011;26998;48.714;9.414;2023-02-28T08:16:12;13.83;;;8.63;;
41263;SDS011;26998;48.714;9.414;2023-02-28T08:18:40;12.27;;;8.37;;
41263;SDS011;26998;48.714;9.414;2023-02-28T08:21:07;14.13;;;8.90;;
41263;SDS011;26998;48.714;9.414;2023-02-28T08:23:36;11.97;;;8.57;;
41263;SDS011;26998;48.714;9.414;2023-02-28T08:26:03;16.67;;;10.27;;
41263;SDS011;26998;48.714;9.414;2023-02-28T08:28:31;13.37;;;8.70;;
41263;SDS011;26998;48.714;9.414;2023-02-28T08:30:59;13.70;;;9.20;;
41263;SDS011;26998;48.714;9.414;2023-02-28T08:33:26;15.13;;;10.03;;
41263;SDS011;26998;48.714;9.414;2023-02-28T08:35:54;13.80;;;8.67;;
41263;SDS011;26998;48.714;9.414;2023-02-28T08:38:22;14.20;;;9.60;;
41263;SDS011;26998;48.714;9.414;2023-02-28T08:40:49;14.40;;;9.20;;
41263;SDS011;26998;48.714;9.414;2023-02-28T08:43:16;15.97;;;9.27;;
41263;SDS011;26998;48.714;9.414;2023-02-28T08:45:42;18.63;;;9.33;;
41263;SDS011;26998;48.714;9.414;2023-02-28T08:48:09;13.80;;;8.90;;
41263;SDS011;26998;48.714;9.414;2023-02-28T08:50:35;15.87;;;9.67;;
41263;SDS011;26998;48.714;9.414;2023-02-28T08:53:02;12.63;;;9.07;;
41263;SDS011;26998;48.714;9.414;2023-02-28T08:55:28;12.60;;;8.33;;
41263;SDS011;26998;48.714;9.414;2023-02-28T08:57:55;16.63;;;9.03;;
41263;SDS011;26998;48.714;9.414;2023-02-28T09:00:21;12.83;;;8.63;;
41263;SDS011;26998;48.714;9.414;2023-02-28T09:02:49;14.03;;;8.77;;
41263;SDS011;26998;48.714;9.414;2023-02-28T09:05:18;13.17;;;8.70;;
41263;SDS011;26998;48.714;9.414;2023-02-28T09:07:44;13.40;;;8.87;;
41263;SDS011;26998;48.714;9.414;2023-02-28T09:10:11;13.63;;;8.70;;
41263;SDS011;26998;48.714;9.414;2023-02-28T09:12:39;13.83;;;8.33;;
41263;SDS011;26998;48.714;9.414;2023-02-28T09:15:06;15.07;;;9.17;;
41263;SDS011;26998;48.714;9.414;2023-02-28T09:17:39;12.10;;;8.37;;
41263;SDS011;26998;48.714;9.414;2023-02-28T09:20:07;13.57;;;9.57;;
41263;SDS011;26998;48.714;9.414;2023-02-28T09:22:43;14.17;;;9.13;;
41263;SDS011;26998;48.714;9.414;2023-02-28T09:25:15;16.60;;;9.20;;
41263;SDS011;26998;48.714;9.414;2023-02-28T09:27:42;14.13;;;9.00;;
41263;SDS011;26998;48.714;9.414;2023-02-28T09:30:11;15.37;;;9.47;;
41263;SDS011;26998;48.714;9.414;2023-02-28T09:32:41;13.30;;;8.60;;
41263;SDS011;26998;48.714;9.414;2023-02-28T09:35:08;14.50;;;8.67;;
41263;SDS011;26998;48.714;9.414;2023-02-28T09:37:35;10.97;;;7.70;;
41263;SDS011;26998;48.714;9.414;2023-02-28T09:40:01;14.60;;;8.93;;
41263;SDS011;26998;48.714;9.414;2023-02-28T09:42:32;13.47;;;9.00;;
41263;SDS011;26998;48.714;9.414;2023-02-28T09:45:10;11.07;;;8.43;;
41263;SDS011;26998;48.714;9.414;2023-02-28T09:47:54;11.53;;;8.47;;
41263;SDS011;26998;48.714;9.414;2023-02-28T09:53:02;14.10;;;9.30;;
41263;SDS011;26998;48.714;9.414;2023-02-28T10:03:59;14.33;;;9.43;;
41263;SDS011;26998;48.714;9.414;2023-02-28T10:06:36;16.10;;;9.30;;
41263;SDS011;26998;48.714;9.414;2023-02-28T10:09:12;15.90;;;9.40;;
41263;SDS011;26998;48.714;9.414;2023-02-28T10:11:45;14.90;;;9.63;;
41263;SDS011;26998;48.714;9.414;2023-02-28T10:14:15;14.70;;;10.00;;
41263;SDS011;26998;48.714;9.414;2023-02-28T10:16:50;16.00;;;8.82;;
41263;SDS011;26998;48.714;9.414;2023-02-28T10:19:29;17.00;;;9.43;;
41263;SDS011;26998;48.714;9.414;2023-02-28T10:22:04;16.27;;;8.73;;
41263;SDS011;26998;48.714;9.414;2023-02-28T10:27:14;15.80;;;9.83;;
41263;SDS011;26998;48.714;9.414;2023-02-28T10:29:45;12.60;;;9.27;;
41263;SDS011;26998;48.714;9.414;2023-02-28T10:32:15;14.30;;;9.80;;
41263;SDS011;26998;48.714;9.414;2023-02-28T10:34:44;13.30;;;9.00;;
41263;SDS011;26998;48.714;9.414;2023-02-28T10:37:18;13.57;;;10.03;;
41263;SDS011;26998;48.714;9.414;2023-02-28T10:39:48;17.97;;;10.13;;
41263;SDS011;26998;48.714;9.414;2023-02-28T10:42:19;14.17;;;9.37;;
41263;SDS011;26998;48.714;9.414;2023-02-28T10:45:34;15.10;;;10.17;;
41263;SDS011;26998;48.714;9.414;2023-02-28T10:47:55;13.77;;;9.63;;
41263;SDS011;26998;48.714;9.414;2023-02-28T10:50:28;14.00;;;9.73;;
41263;SDS011;26998;48.714;9.414;2023-02-28T10:55:43;13.73;;;9.60;;
41263;SDS011;26998;48.714;9.414;2023-02-28T10:58:23;17.40;;;10.63;;
41263;SDS011;26998;48.714;9.414;2023-02-28T11:00:51;15.03;;;9.30;;
41263;SDS011;26998;48.714;9.414;2023-02-28T11:03:34;12.73;;;9.60;;
41263;SDS011;26998;48.714;9.414;2023-02-28T11:06:06;14.23;;;10.18;;
41263;SDS011;26998;48.714;9.414;2023-02-28T11:08:35;15.43;;;10.00;;
41263;SDS011;26998;48.714;9.414;2023-02-28T11:11:10;13.30;;;10.13;;
41263;SDS011;26998;48.714;9.414;2023-02-28T11:13:38;16.60;;;10.83;;
41263;SDS011;26998;48.714;9.414;2023-02-28T11:16:05;12.50;;;9.10;;
41263;SDS011;26998;48.714;9.414;2023-02-28T11:18:37;13.20;;;9.63;;
41263;SDS011;26998;48.714;9.414;2023-02-28T11:21:08;13.80;;;10.13;;
41263;SDS011;26998;48.714;9.414;2023-02-28T11:23:41;13.32;;;9.57;;
41263;SDS011;26998;48.714;9.414;2023-02-28T11:26:08;14.27;;;10.30;;
41263;SDS011;26998;48.714;9.414;2023-02-28T11:28:35;14.57;;;9.60;;
41263;SDS011;26998;48.714;9.414;2023-02-28T11:31:21;14.25;;;10.10;;
41263;SDS011;26998;48.714;9.414;2023-02-28T11:34:07;13.18;;;8.90;;
41263;SDS011;26998;48.714;9.414;2023-02-28T11:36:53;15.13;;;10.02;;
41263;SDS011;26998;48.714;9.414;2023-02-28T11:39:26;13.52;;;9.73;;
41263;SDS011;26998;48.714;9.414;2023-02-28T11:53:52;11.82;;;9.00;;
41263;SDS011;26998;48.714;9.414;2023-02-28T11:59:11;12.82;;;8.93;;
41263;SDS011;26998;48.714;9.414;2023-02-28T12:04:34;14.98;;;9.70;;
41263;SDS011;26998;48.714;9.414;2023-02-28T12:10:29;13.40;;;9.90;;
41263;SDS011;26998;48.714;9.414;2023-02-28T12:13:17;12.55;;;9.70;;
41263;SDS011;26998;48.714;9.414;2023-02-28T12:18:37;14.43;;;9.73;;
41263;SDS011;26998;48.714;9.414;2023-02-28T12:21:37;17.30;;;10.20;;
41263;SDS011;26998;48.714;9.414;2023-02-28T12:24:20;15.05;;;9.70;;
41263;SDS011;26998;48.714;9.414;2023-02-28T12:27:00;13.35;;;9.20;;
41263;SDS011;26998;48.714;9.414;2023-02-28T12:29:34;13.30;;;9.52;;
41263;SDS011;26998;48.714;9.414;2023-02-28T12:32:35;15.50;;;9.27;;
41263;SDS011;26998;48.714;9.414;2023-02-28T12:37:39;14.73;;;9.15;;
41263;SDS011;26998;48.714;9.414;2023-02-28T12:40:11;13.05;;;10.30;;
41263;SDS011;26998;48.714;9.414;2023-02-28T12:42:42;16.13;;;10.20;;
41263;SDS011;26998;48.714;9.414;2023-02-28T12:45:16;11.43;;;8.38;;
41263;SDS011;26998;48.714;9.414;2023-02-28T12:47:46;12.63;;;9.30;;
41263;SDS011;26998;48.714;9.414;2023-02-28T12:50:18;15.02;;;10.18;;
41263;SDS011;26998;48.714;9.414;2023-02-28T12:53:06;12.80;;;9.57;;
41263;SDS011;26998;48.714;9.414;2023-02-28T12:58:49;12.65;;;10.00;;
41263;SDS011;26998;48.714;9.414;2023-02-28T13:01:26;11.60;;;9.95;;
41263;SDS011;26998;48.714;9.414;2023-02-28T13:07:08;15.10;;;10.35;;
41263;SDS011;26998;48.714;9.414;2023-02-28T13:09:52;13.80;;;9.20;;
41263;SDS011;26998;48.714;9.414;2023-02-28T13:12:23;11.80;;;9.35;;
41263;SDS011;26998;48.714;9.414;2023-02-28T13:15:31;14.70;;;9.77;;
41263;SDS011;26998;48.714;9.414;2023-02-28T13:17:58;15.52;;;10.93;;
41263;SDS011;26998;48.714;9.414;2023-02-28T13:20:26;17.17;;;9.77;;
41263;SDS011;26998;48.714;9.414;2023-02-28T13:23:14;11.38;;;8.80;;
41263;SDS011;26998;48.714;9.414;2023-02-28T13:26:12;12.48;;;9.38;;
41263;SDS011;26998;48.714;9.414;2023-02-28T13:31:21;14.88;;;9.38;;
41263;SDS011;26998;48.714;9.414;2023-02-28T13:38:47;12.25;;;9.20;;
41263;SDS011;26998;48.714;9.414;2023-02-28T13:43:58;13.82;;;8.70;;
41263;SDS011;26998;48.714;9.414;2023-02-28T13:46:32;12.43;;;9.38;;
41263;SDS011;26998;48.714;9.414;2023-02-28T13:51:51;13.35;;;8.77;;
41263;SDS011;26998;48.714;9.414;2023-02-28T14:00:41;18.38;;;9.73;;
41263;SDS011;26998;48.714;9.414;2023-02-28T14:09:01;10.80;;;8.63;;
41263;SDS011;26998;48.714;9.414;2023-02-28T14:12:50;10.32;;;8.80;;
41263;SDS011;26998;48.714;9.414;2023-02-28T14:15:02;14.48;;;8.45;;
41263;SDS011;26998;48.714;9.414;2023-02-28T14:17:30;12.80;;;9.40;;
41263;SDS011;26998;48.714;9.414;2023-02-28T14:28:56;12.63;;;9.68;;
41263;SDS011;26998;48.714;9.414;2023-02-28T14:31:33;13.45;;;9.68;;
41263;SDS011;26998;48.714;9.414;2023-02-28T14:34:54;13.43;;;10.02;;
41263;SDS011;26998;48.714;9.414;2023-02-28T14:38:04;12.23;;;8.70;;
41263;SDS011;26998;48.714;9.414;2023-02-28T14:40:35;13.45;;;9.05;;
41263;SDS011;26998;48.714;9.414;2023-02-28T14:43:05;11.68;;;8.82;;
41263;SDS011;26998;48.714;9.414;2023-02-28T14:45:48;13.98;;;9.85;;
41263;SDS011;26998;48.714;9.414;2023-02-28T14:48:18;14.45;;;9.68;;
41263;SDS011;26998;48.714;9.414;2023-02-28T14:50:53;10.63;;;8.38;;
41263;SDS011;26998;48.714;9.414;2023-02-28T14:53:28;12.85;;;9.65;;
41263;SDS011;26998;48.714;9.414;2023-02-28T14:56:17;13.07;;;9.50;;
41263;SDS011;26998;48.714;9.414;2023-02-28T14:59:23;15.43;;;9.88;;
41263;SDS011;26998;48.714;9.414;2023-02-28T15:04:40;12.85;;;9.02;;
41263;SDS011;26998;48.714;9.414;2023-02-28T15:07:14;14.20;;;9.90;;
41263;SDS011;26998;48.714;9.414;2023-02-28T15:12:58;17.45;;;10.32;;
41263;SDS011;26998;48.714;9.414;2023-02-28T15:15:35;13.88;;;9.30;;
41263;SDS011;26998;48.714;9.414;2023-02-28T15:21:17;12.38;;;9.35;;
41263;SDS011;26998;48.714;9.414;2023-02-28T15:23:48;15.45;;;9.43;;
41263;SDS011;26998;48.714;9.414;2023-02-28T15:26:20;11.73;;;8.63;;
41263;SDS011;26998;48.714;9.414;2023-02-28T15:28:59;12.73;;;9.13;;
41263;SDS011;26998;48.714;9.414;2023-02-28T15:31:48;13.18;;;9.75;;
41263;SDS011;26998;48.714;9.414;2023-02-28T15:40:41;12.43;;;9.68;;
41263;SDS011;26998;48.714;9.414;2023-02-28T15:43:16;12.10;;;9.13;;
41263;SDS011;26998;48.714;9.414;2023-02-28T15:45:56;12.25;;;9.40;;
41263;SDS011;26998;48.714;9.414;2023-02-28T15:48:44;13.35;;;9.50;;
41263;SDS011;26998;48.714;9.414;2023-02-28T15:51:18;14.82;;;10.50;;
41263;SDS011;26998;48.714;9.414;2023-02-28T15:53:57;16.30;;;9.57;;
41263;SDS011;26998;48.714;9.414;2023-02-28T15:56:29;16.80;;;10.48;;
41263;SDS011;26998;48.714;9.414;2023-02-28T15:58:59;13.75;;;10.35;;
41263;SDS011;26998;48.714;9.414;2023-02-28T16:01:37;15.70;;;9.88;;
41263;SDS011;26998;48.714;9.414;2023-02-28T16:04:20;13.15;;;9.40;;
41263;SDS011;26998;48.714;9.414;2023-02-28T16:07:12;17.00;;;9.75;;
41263;SDS011;26998;48.714;9.414;2023-02-28T16:09:40;11.90;;;9.48;;
41263;SDS011;26998;48.714;9.414;2023-02-28T16:12:13;14.50;;;9.87;;
41263;SDS011;26998;48.714;9.414;2023-02-28T16:15:00;12.40;;;10.00;;
41263;SDS011;26998;48.714;9.414;2023-02-28T16:17:33;14.00;;;10.15;;
41263;SDS011;26998;48.714;9.414;2023-02-28T16:20:05;13.65;;;9.45;;
41263;SDS011;26998;48.714;9.414;2023-02-28T16:22:43;15.10;;;9.95;;
41263;SDS011;26998;48.714;9.414;2023-02-28T16:25:13;12.98;;;9.35;;
41263;SDS011;26998;48.714;9.414;2023-02-28T16:27:43;13.50;;;9.73;;
41263;SDS011;26998;48.714;9.414;2023-02-28T16:30:17;12.57;;;9.73;;
41263;SDS011;26998;48.714;9.414;2023-02-28T16:32:47;15.48;;;10.38;;
41263;SDS011;26998;48.714;9.414;2023-02-28T16:35:16;16.13;;;10.27;;
41263;SDS011;26998;48.714;9.414;2023-02-28T16:37:43;15.68;;;10.32;;
41263;SDS011;26998;48.714;9.414;2023-02-28T16:40:14;11.52;;;9.15;;
41263;SDS011;26998;48.714;9.414;2023-02-28T16:42:43;14.05;;;10.48;;
41263;SDS011;26998;48.714;9.414;2023-02-28T16:45:23;13.88;;;10.20;;
41263;SDS011;26998;48.714;9.414;2023-02-28T16:47:58;15.38;;;9.95;;
41263;SDS011;26998;48.714;9.414;2023-02-28T16:50:27;13.38;;;9.60;;
41263;SDS011;26998;48.714;9.414;2023-02-28T16:52:56;15.20;;;10.32;;
41263;SDS011;26998;48.714;9.414;2023-02-28T16:55:25;14.70;;;10.20;;
41263;SDS011;26998;48.714;9.414;2023-02-28T16:58:13;14.23;;;10.10;;